Time;durP1;ratioP1;P1;durP2;ratioP2;P2;SDS_P1;SDS_P2;PMS_P1;PMS_P2;Temp;Humidity;BMP_temperature;BMP_pressure;BME280_temperature;BME280_humidity;BME280_pressure;Samples;Min_cycle;Max_cycle;Signal;HPM_P1;HPM_P2
2022/10/08 00:00:54;;;;;;;20.27;14.50;;;19.70;59.90;;;;;;5058385;28;20032;-85
2022/10/08 00:03:21;;;;;;;18.52;13.90;;;19.70;60.00;;;;;;5075196;28;20020;-84
2022/10/08 00:06:05;;;;;;;20.63;14.57;;;19.70;60.20;;;;;;5076237;28;20059;-83
2022/10/08 00:08:33;;;;;;;17.83;14.07;;;19.50;60.40;;;;;;5076283;28;20028;-84
2022/10/08 00:11:03;;;;;;;19.02;13.63;;;19.40;60.30;;;;;;5075616;28;20091;-88
2022/10/08 00:13:39;;;;;;;21.65;14.60;;;19.40;60.60;;;;;;5058413;28;20032;-84
2022/10/08 00:16:32;;;;;;;16.80;12.15;;;19.40;60.90;;;;;;5058336;28;20020;-85
2022/10/08 00:19:00;;;;;;;17.67;12.45;;;19.50;60.70;;;;;;5058078;28;20383;-85
2022/10/08 00:21:31;;;;;;;17.52;12.95;;;19.10;61.80;;;;;;5074578;28;20025;-85
2022/10/08 00:23:58;;;;;;;15.25;11.63;;;19.20;61.50;;;;;;5057881;28;20020;-84
2022/10/08 00:26:26;;;;;;;20.15;12.05;;;19.40;61.10;;;;;;5057884;28;20032;-84
2022/10/08 00:28:55;;;;;;;18.30;11.93;;;19.60;60.50;;;;;;5057821;28;20055;-85
2022/10/08 00:31:31;;;;;;;17.00;12.10;;;19.80;60.00;;;;;;5075019;28;20044;-86
2022/10/08 00:33:59;;;;;;;16.33;12.23;;;19.90;60.00;;;;;;5091570;28;20063;-85
2022/10/08 00:36:27;;;;;;;15.05;11.35;;;19.90;59.90;;;;;;5091514;28;20023;-86
2022/10/08 00:39:01;;;;;;;16.80;11.27;;;19.90;59.90;;;;;;5091438;28;20024;-85
2022/10/08 00:41:29;;;;;;;15.00;11.00;;;19.90;59.80;;;;;;5090652;28;20406;-84
2022/10/08 00:44:03;;;;;;;17.35;11.57;;;19.90;59.70;;;;;;5057518;28;20060;-85
2022/10/08 00:46:40;;;;;;;15.60;11.23;;;19.90;59.40;;;;;;5054536;28;20032;-86
2022/10/08 00:49:12;;;;;;;15.70;11.52;;;19.70;59.20;;;;;;5057414;28;20103;-86
2022/10/08 00:51:43;;;;;;;17.05;11.80;;;19.70;59.80;;;;;;5057148;28;20036;-85
2022/10/08 00:54:10;;;;;;;15.88;10.98;;;19.60;59.10;;;;;;5091151;28;20040;-85
2022/10/08 00:56:38;;;;;;;17.30;11.75;;;19.40;59.70;;;;;;5057415;28;20032;-87
2022/10/08 00:59:06;;;;;;;15.15;10.80;;;19.40;59.90;;;;;;5057318;28;20116;-86
2022/10/08 01:01:32;;;;;;;20.30;12.82;;;19.40;60.10;;;;;;5073831;28;20051;-85
2022/10/08 01:04:04;;;;;;;19.10;11.50;;;19.40;60.10;;;;;;5056931;28;20490;-84
2022/10/08 01:06:55;;;;;;;14.60;10.93;;;19.50;60.10;;;;;;5057332;28;20025;-85
2022/10/08 01:09:32;;;;;;;17.30;11.93;;;19.40;61.00;;;;;;5056843;28;20021;-85
2022/10/08 01:12:33;;;;;;;17.08;12.40;;;19.40;61.30;;;;;;5056546;28;20090;-85
2022/10/08 01:15:12;;;;;;;17.42;12.45;;;19.50;61.30;;;;;;5033129;28;20373;-86
2022/10/08 01:17:47;;;;;;;17.38;11.55;;;19.60;60.80;;;;;;5033434;28;20038;-86
2022/10/08 01:20:28;;;;;;;15.73;11.23;;;19.70;60.10;;;;;;5032942;28;20191;-85
2022/10/08 01:23:23;;;;;;;15.80;11.35;;;19.60;59.70;;;;;;5016822;28;20038;-85
2022/10/08 01:26:30;;;;;;;14.77;11.18;;;19.60;59.30;;;;;;5033593;28;20456;-85
2022/10/08 01:29:21;;;;;;;17.67;11.32;;;19.60;59.40;;;;;;5032590;28;20042;-86
2022/10/08 01:31:52;;;;;;;17.05;11.68;;;19.20;61.10;;;;;;4996714;28;20400;-86
2022/10/08 01:34:39;;;;;;;15.32;11.27;;;19.00;60.60;;;;;;5014009;28;20049;-84
2022/10/08 01:37:07;;;;;;;15.13;11.13;;;19.10;60.10;;;;;;5012420;28;20034;-85
2022/10/08 01:39:36;;;;;;;14.98;10.70;;;19.10;59.40;;;;;;4996745;28;20479;-85
2022/10/08 01:42:04;;;;;;;18.88;10.93;;;19.20;59.40;;;;;;4996358;28;20093;-85
2022/10/08 01:44:45;;;;;;;15.02;10.70;;;19.20;59.30;;;;;;4999725;28;20029;-85
2022/10/08 01:47:14;;;;;;;16.83;11.15;;;19.20;59.80;;;;;;5032709;28;20097;-86
2022/10/08 01:50:09;;;;;;;14.43;10.75;;;19.10;60.00;;;;;;5048627;28;20029;-84
2022/10/08 01:52:50;;;;;;;14.02;9.68;;;19.20;59.20;;;;;;5036264;28;20115;-86
2022/10/08 01:55:28;;;;;;;16.63;11.52;;;19.20;58.70;;;;;;5054101;28;20119;-87
2022/10/08 01:57:58;;;;;;;13.63;10.15;;;19.10;58.30;;;;;;5069705;28;20035;-86
2022/10/08 02:00:34;;;;;;;15.73;10.68;;;19.00;58.70;;;;;;5036291;28;20047;-86
2022/10/08 02:03:01;;;;;;;14.05;10.30;;;18.90;59.20;;;;;;5069386;28;20033;-86
2022/10/08 02:05:31;;;;;;;19.92;12.43;;;18.90;58.90;;;;;;5064452;28;20138;-85
2022/10/08 02:07:56;;;;;;;14.25;10.77;;;18.90;58.90;;;;;;5073993;28;20028;-85
2022/10/08 02:10:24;;;;;;;14.93;10.00;;;18.80;58.60;;;;;;5073549;28;20086;-85
2022/10/08 02:12:50;;;;;;;17.58;12.45;;;18.80;58.50;;;;;;5056224;28;20031;-85
2022/10/08 02:15:21;;;;;;;17.55;12.20;;;18.80;58.90;;;;;;5055491;28;20029;-85
2022/10/08 02:17:52;;;;;;;14.40;10.20;;;18.80;59.10;;;;;;5056064;28;20078;-85
2022/10/08 02:20:28;;;;;;;16.48;12.30;;;18.80;59.00;;;;;;5056228;28;20035;-84
2022/10/08 02:23:12;;;;;;;17.13;11.35;;;18.60;58.90;;;;;;5089517;28;20017;-85
2022/10/08 02:25:59;;;;;;;16.65;12.23;;;18.50;58.90;;;;;;5042031;28;20044;-87
2022/10/08 02:28:39;;;;;;;17.35;11.60;;;18.30;59.00;;;;;;5069571;28;20388;-87
2022/10/08 02:31:19;;;;;;;18.58;12.30;;;18.30;59.40;;;;;;5056449;28;20475;-85
2022/10/08 02:33:53;;;;;;;16.67;11.75;;;18.30;59.50;;;;;;5073595;28;20033;-85
2022/10/08 02:36:27;;;;;;;16.20;10.85;;;18.40;59.50;;;;;;5073275;28;20391;-84
2022/10/08 02:38:56;;;;;;;15.13;11.23;;;18.30;59.30;;;;;;5054853;28;20068;-83
2022/10/08 02:41:27;;;;;;;16.20;12.00;;;18.30;59.10;;;;;;5035902;28;20032;-84
2022/10/08 02:43:56;;;;;;;16.58;11.65;;;18.20;59.10;;;;;;5037545;28;20029;-85
2022/10/08 02:46:26;;;;;;;15.90;11.65;;;18.00;59.20;;;;;;5056205;28;20391;-84
2022/10/08 02:49:13;;;;;;;16.30;11.43;;;17.90;59.50;;;;;;5089086;28;20421;-83
2022/10/08 02:51:43;;;;;;;17.70;11.13;;;17.90;59.70;;;;;;5055559;28;20056;-89
2022/10/08 02:54:09;;;;;;;16.25;11.63;;;17.90;59.80;;;;;;5073513;28;20033;-86
2022/10/08 02:57:14;;;;;;;13.82;10.85;;;17.80;60.10;;;;;;5089420;28;20475;-89
2022/10/08 02:59:41;;;;;;;17.85;11.82;;;17.80;60.20;;;;;;5042018;28;20039;-88
2022/10/08 03:02:08;;;;;;;13.27;10.45;;;17.80;60.00;;;;;;5073384;28;20020;-87
2022/10/08 03:04:46;;;;;;;16.20;11.52;;;17.90;59.70;;;;;;5088685;28;20369;-87
2022/10/08 03:07:14;;;;;;;16.77;10.68;;;17.80;59.60;;;;;;5055426;28;20509;-87
2022/10/08 03:09:43;;;;;;;14.07;10.23;;;17.60;59.80;;;;;;5082873;28;20033;-88
2022/10/08 03:12:09;;;;;;;14.52;11.02;;;17.50;60.00;;;;;;5053245;28;20384;-89
2022/10/08 03:14:42;;;;;;;17.15;12.07;;;17.40;60.30;;;;;;5035988;28;20396;-87
2022/10/08 03:17:11;;;;;;;15.77;10.57;;;17.50;60.10;;;;;;5053243;28;20035;-87
2022/10/08 03:19:37;;;;;;;20.33;12.32;;;17.70;60.10;;;;;;5063886;28;20067;-87
2022/10/08 03:22:04;;;;;;;17.73;11.82;;;17.80;59.70;;;;;;5049005;28;20112;-85
2022/10/08 03:24:30;;;;;;;17.85;11.82;;;17.80;59.90;;;;;;5074217;28;20486;-87
2022/10/08 03:26:55;;;;;;;19.67;11.23;;;17.90;59.50;;;;;;5055066;28;20039;-87
2022/10/08 03:29:21;;;;;;;16.85;12.05;;;17.90;59.30;;;;;;5038691;28;20224;-86
2022/10/08 03:31:47;;;;;;;15.57;11.05;;;17.90;58.90;;;;;;5041563;28;20037;-87
2022/10/08 03:34:13;;;;;;;15.52;11.23;;;17.80;59.20;;;;;;5089820;28;20033;-87
2022/10/08 03:36:39;;;;;;;16.92;11.02;;;17.70;59.30;;;;;;5058139;28;20047;-87
2022/10/08 03:39:05;;;;;;;16.38;11.65;;;17.80;59.30;;;;;;5072845;28;20054;-84
2022/10/08 03:41:30;;;;;;;19.20;11.60;;;17.80;58.90;;;;;;5043907;28;20364;-86
2022/10/08 03:43:57;;;;;;;20.52;12.25;;;17.80;59.00;;;;;;5058574;28;20025;-85
2022/10/08 03:46:32;;;;;;;18.70;11.68;;;17.70;59.10;;;;;;5076420;28;20050;-87
2022/10/08 03:48:58;;;;;;;18.67;12.20;;;17.70;59.10;;;;;;5054085;28;20036;-86
2022/10/08 03:51:23;;;;;;;15.32;10.73;;;17.70;58.70;;;;;;5056523;28;20383;-87
2022/10/08 03:53:49;;;;;;;18.02;11.18;;;17.60;58.90;;;;;;5059880;28;20040;-86
2022/10/08 03:56:23;;;;;;;16.25;11.35;;;17.60;59.20;;;;;;5078451;28;20481;-86
2022/10/08 03:58:53;;;;;;;16.92;11.57;;;17.50;59.20;;;;;;5095247;28;20489;-87
2022/10/08 04:01:19;;;;;;;18.67;11.98;;;17.60;59.30;;;;;;5095354;28;20024;-85
2022/10/08 04:03:44;;;;;;;21.58;11.95;;;17.60;59.10;;;;;;5075936;28;20032;-85
2022/10/08 04:06:11;;;;;;;16.42;11.80;;;17.50;59.30;;;;;;5054251;28;20017;-84
2022/10/08 04:08:37;;;;;;;18.20;11.57;;;17.30;59.70;;;;;;5076105;28;20017;-85
2022/10/08 04:11:13;;;;;;;21.17;11.98;;;17.30;59.50;;;;;;5092094;28;20035;-87
2022/10/08 04:13:39;;;;;;;19.58;12.73;;;17.40;59.50;;;;;;5075704;28;20506;-82
2022/10/08 04:16:07;;;;;;;24.23;14.85;;;17.40;59.10;;;;;;5085022;28;20361;-88
2022/10/08 04:18:33;;;;;;;23.77;14.60;;;17.30;59.50;;;;;;5075639;28;20031;-87
2022/10/08 04:21:01;;;;;;;21.42;14.10;;;17.30;59.40;;;;;;5091876;28;20028;-87
2022/10/08 04:23:27;;;;;;;22.55;15.00;;;17.40;60.00;;;;;;5075693;28;20028;-87
2022/10/08 04:25:53;;;;;;;18.80;13.85;;;17.50;59.30;;;;;;5053726;28;20567;-85
2022/10/08 04:28:34;;;;;;;20.60;14.45;;;17.50;59.30;;;;;;5055925;28;20096;-85
2022/10/08 04:31:05;;;;;;;22.45;15.10;;;17.50;59.30;;;;;;5070781;28;20060;-86
2022/10/08 04:33:33;;;;;;;19.88;14.00;;;17.50;59.60;;;;;;5071867;28;20068;-84
2022/10/08 04:35:58;;;;;;;19.48;13.35;;;17.60;59.40;;;;;;5050656;28;20017;-88
2022/10/08 04:38:25;;;;;;;18.67;12.52;;;17.70;59.90;;;;;;5071255;28;20036;-85
2022/10/08 04:41:07;;;;;;;17.88;12.68;;;17.70;60.50;;;;;;5055421;28;20025;-86
2022/10/08 04:43:39;;;;;;;22.33;13.75;;;17.30;62.60;;;;;;5036923;28;20119;-86
2022/10/08 04:46:06;;;;;;;19.92;13.70;;;16.70;65.30;;;;;;5055943;28;20056;-84
2022/10/08 04:48:32;;;;;;;22.65;12.60;;;16.90;64.10;;;;;;5070316;28;20032;-84
2022/10/08 04:51:00;;;;;;;23.42;14.60;;;17.10;62.20;;;;;;5055000;28;20021;-84
2022/10/08 04:53:27;;;;;;;20.80;12.90;;;17.50;61.30;;;;;;5054955;28;20021;-84
2022/10/08 04:55:54;;;;;;;18.85;12.85;;;17.80;60.30;;;;;;5071751;28;20479;-84
2022/10/08 04:58:21;;;;;;;19.13;12.73;;;17.80;59.50;;;;;;5090457;28;20028;-83
2022/10/08 05:00:46;;;;;;;17.10;11.77;;;17.90;59.00;;;;;;5074815;28;20399;-85
2022/10/08 05:03:12;;;;;;;18.75;12.57;;;17.80;58.80;;;;;;5074607;28;20491;-85
2022/10/08 05:05:40;;;;;;;18.38;12.93;;;17.70;59.00;;;;;;5084515;28;20119;-83
2022/10/08 05:08:05;;;;;;;19.27;12.90;;;17.60;58.90;;;;;;5036744;28;20036;-85
2022/10/08 05:10:31;;;;;;;20.45;12.75;;;17.50;59.40;;;;;;5069873;28;20044;-84
2022/10/08 05:12:58;;;;;;;22.27;13.90;;;17.50;59.10;;;;;;5054526;28;20064;-84
2022/10/08 05:15:23;;;;;;;22.23;14.38;;;17.50;59.30;;;;;;5040097;28;20510;-84
2022/10/08 05:17:49;;;;;;;19.08;12.70;;;17.60;59.30;;;;;;5038467;28;20112;-84
2022/10/08 05:20:15;;;;;;;28.55;15.75;;;17.60;59.10;;;;;;5036508;28;20128;-85
2022/10/08 05:22:40;;;;;;;19.60;13.27;;;17.60;59.00;;;;;;5036558;28;20017;-84
2022/10/08 05:25:06;;;;;;;24.45;15.15;;;17.60;59.30;;;;;;5068597;28;20031;-83
2022/10/08 05:27:32;;;;;;;20.00;13.10;;;17.50;59.70;;;;;;5073919;28;20067;-84
2022/10/08 05:29:58;;;;;;;24.02;15.30;;;17.60;59.80;;;;;;5055494;28;20099;-83
2022/10/08 05:32:23;;;;;;;24.38;14.55;;;17.60;60.20;;;;;;5071862;28;20063;-83
2022/10/08 05:34:49;;;;;;;23.90;15.88;;;17.50;59.70;;;;;;5067267;28;20032;-83
2022/10/08 05:37:15;;;;;;;19.35;14.10;;;17.50;59.90;;;;;;5071769;28;20095;-83
2022/10/08 05:39:40;;;;;;;23.10;14.98;;;17.60;60.10;;;;;;5055550;28;20093;-83
2022/10/08 05:42:06;;;;;;;25.33;16.33;;;17.60;60.60;;;;;;5073116;28;20094;-83
2022/10/08 05:44:32;;;;;;;20.75;13.95;;;17.80;60.50;;;;;;5072667;28;20071;-83
2022/10/08 05:46:57;;;;;;;20.38;14.77;;;17.80;60.50;;;;;;5071918;28;20028;-83
2022/10/08 05:49:23;;;;;;;28.42;16.13;;;17.90;60.60;;;;;;5073243;28;20103;-83
2022/10/08 05:51:49;;;;;;;27.80;17.95;;;17.90;60.90;;;;;;5072419;28;20048;-83
2022/10/08 05:54:16;;;;;;;28.75;17.48;;;18.10;60.80;;;;;;5088603;28;20082;-83
2022/10/08 05:56:42;;;;;;;32.08;19.48;;;18.10;61.00;;;;;;5054293;28;20479;-82
2022/10/08 05:59:20;;;;;;;26.15;17.00;;;18.30;61.00;;;;;;5072069;28;20060;-82
2022/10/08 06:01:46;;;;;;;25.95;17.95;;;18.40;61.50;;;;;;5072883;28;20054;-83
2022/10/08 06:04:12;;;;;;;41.30;27.10;;;17.70;63.80;;;;;;5071964;28;20033;-82
2022/10/08 06:06:39;;;;;;;43.30;29.02;;;17.50;64.80;;;;;;5072686;28;20021;-83
2022/10/08 06:09:06;;;;;;;28.75;21.90;;;17.70;64.20;;;;;;5071998;28;20025;-82
2022/10/08 06:11:35;;;;;;;22.15;15.38;;;17.80;64.80;;;;;;5070831;28;20028;-84
2022/10/08 06:14:01;;;;;;;28.08;18.40;;;18.20;63.60;;;;;;5048901;28;20041;-82
2022/10/08 06:16:28;;;;;;;33.50;20.65;;;18.60;63.10;;;;;;5072935;28;20029;-81
2022/10/08 06:18:54;;;;;;;34.75;20.52;;;18.80;62.40;;;;;;5072087;28;20035;-82
2022/10/08 06:21:22;;;;;;;30.73;18.88;;;19.00;62.70;;;;;;5054192;28;20016;-82
2022/10/08 06:23:50;;;;;;;27.08;18.40;;;19.10;62.40;;;;;;5073096;28;20063;-82
2022/10/08 06:26:18;;;;;;;22.05;15.05;;;19.30;62.00;;;;;;5042158;28;20028;-82
2022/10/08 06:28:45;;;;;;;25.55;15.95;;;18.80;63.30;;;;;;5070893;28;20025;-84
2022/10/08 06:31:12;;;;;;;20.23;14.57;;;18.20;64.50;;;;;;5054756;28;20044;-83
2022/10/08 06:33:38;;;;;;;21.70;14.35;;;18.00;66.20;;;;;;5070432;28;20043;-83
2022/10/08 06:36:12;;;;;;;18.35;13.52;;;18.10;66.00;;;;;;5069076;28;20086;-82
2022/10/08 06:38:37;;;;;;;19.83;15.70;;;18.10;66.20;;;;;;5053715;28;20507;-81
2022/10/08 06:41:03;;;;;;;24.98;16.10;;;18.50;65.70;;;;;;5071141;28;20103;-82
2022/10/08 06:43:29;;;;;;;25.02;17.02;;;18.90;65.10;;;;;;5070495;28;20499;-82
2022/10/08 06:45:55;;;;;;;21.55;14.93;;;19.20;64.30;;;;;;5071642;28;20429;-82
2022/10/08 06:48:22;;;;;;;22.33;15.18;;;19.40;63.40;;;;;;5070585;28;20024;-82
2022/10/08 06:50:47;;;;;;;19.17;14.68;;;19.00;65.00;;;;;;5035054;28;20021;-83
2022/10/08 06:53:13;;;;;;;20.75;15.05;;;19.10;64.80;;;;;;5068544;28;20392;-81
2022/10/08 06:55:39;;;;;;;24.15;16.05;;;19.30;64.90;;;;;;5054545;28;20480;-80
2022/10/08 06:58:05;;;;;;;26.35;17.92;;;19.60;64.60;;;;;;5074271;28;20433;-83
2022/10/08 07:00:31;;;;;;;28.75;19.40;;;19.90;64.10;;;;;;5052418;28;20021;-82
2022/10/08 07:02:57;;;;;;;27.45;19.63;;;20.20;63.50;;;;;;5074177;28;20073;-83
2022/10/08 07:05:23;;;;;;;28.83;19.27;;;20.30;63.40;;;;;;5092371;28;20024;-83
2022/10/08 07:07:52;;;;;;;34.17;21.00;;;20.50;62.90;;;;;;5094171;28;20087;-83
2022/10/08 07:10:18;;;;;;;30.48;20.33;;;20.60;63.00;;;;;;5075713;28;20031;-81
2022/10/08 07:12:43;;;;;;;31.70;22.13;;;20.70;62.90;;;;;;5076416;28;20037;-85
2022/10/08 07:15:09;;;;;;;31.58;21.58;;;20.90;62.90;;;;;;5075261;28;20079;-84
2022/10/08 07:17:35;;;;;;;31.77;22.40;;;21.00;62.40;;;;;;5057947;28;20017;-81
2022/10/08 07:20:01;;;;;;;28.00;21.60;;;21.00;62.80;;;;;;5074941;28;20029;-81
2022/10/08 07:22:26;;;;;;;27.73;21.10;;;21.20;62.00;;;;;;5076850;28;20056;-83
2022/10/08 07:24:52;;;;;;;32.63;20.65;;;21.20;61.80;;;;;;5058524;28;20029;-84
2022/10/08 07:27:19;;;;;;;29.13;21.58;;;21.20;61.70;;;;;;5061488;28;20522;-86
2022/10/08 07:29:44;;;;;;;29.27;21.70;;;21.40;61.60;;;;;;5079041;28;20078;-84
2022/10/08 07:32:10;;;;;;;26.50;19.60;;;21.40;62.00;;;;;;5060721;28;20582;-85
2022/10/08 07:34:36;;;;;;;26.00;19.67;;;21.50;61.90;;;;;;5075763;28;20095;-85
2022/10/08 07:37:01;;;;;;;26.90;20.20;;;21.40;62.20;;;;;;5075582;28;20025;-86
2022/10/08 07:39:27;;;;;;;28.50;19.65;;;21.50;62.00;;;;;;5058615;28;20025;-85
2022/10/08 07:41:53;;;;;;;24.85;19.70;;;21.70;62.40;;;;;;5058490;28;20025;-86
2022/10/08 07:44:19;;;;;;;29.10;20.38;;;22.00;61.90;;;;;;5076229;28;20031;-84
2022/10/08 07:46:49;;;;;;;31.10;22.92;;;22.00;61.40;;;;;;5058486;28;20031;-84
2022/10/08 07:49:17;;;;;;;28.15;21.33;;;22.10;61.40;;;;;;5058397;28;20070;-86
2022/10/08 07:51:43;;;;;;;33.83;22.85;;;22.10;61.00;;;;;;5076249;28;20353;-87
2022/10/08 07:54:15;;;;;;;30.42;22.98;;;22.20;60.80;;;;;;5058884;28;20064;-90
2022/10/08 07:57:06;;;;;;;27.83;22.05;;;22.40;60.80;;;;;;5058980;28;20036;-91
2022/10/08 07:59:32;;;;;;;28.13;21.05;;;22.40;60.00;;;;;;5041998;28;20037;-88
2022/10/08 08:02:15;;;;;;;25.00;20.20;;;21.80;62.00;;;;;;5055716;28;20025;-90
2022/10/08 08:04:41;;;;;;;31.20;23.80;;;21.30;62.60;;;;;;5038967;28;20021;-86
2022/10/08 08:07:07;;;;;;;31.73;24.77;;;21.40;62.80;;;;;;5055123;28;20032;-88
2022/10/08 08:09:33;;;;;;;28.77;22.60;;;21.90;62.30;;;;;;5072212;28;20029;-88
2022/10/08 08:11:59;;;;;;;38.40;28.58;;;22.20;61.20;;;;;;5072308;28;20021;-90
2022/10/08 08:14:24;;;;;;;33.85;25.85;;;22.20;61.50;;;;;;5071573;28;20037;-92
2022/10/08 08:16:50;;;;;;;27.42;19.98;;;22.60;61.00;;;;;;5072043;28;20068;-91
2022/10/08 08:19:16;;;;;;;28.08;19.30;;;22.80;60.20;;;;;;5038372;28;20033;-88
2022/10/08 08:21:41;;;;;;;24.00;18.13;;;22.70;60.60;;;;;;5071882;28;20029;-86
2022/10/08 08:24:11;;;;;;;25.92;19.33;;;22.50;60.50;;;;;;5071104;28;20021;-90
2022/10/08 08:26:39;;;;;;;26.27;19.15;;;22.50;61.20;;;;;;5071711;28;20029;-91
2022/10/08 08:29:59;;;;;;;22.50;17.67;;;22.50;61.00;;;;;;5019140;28;20124;-92
2022/10/08 08:32:24;;;;;;;22.50;16.42;;;22.40;61.70;;;;;;5071582;28;20052;-85
2022/10/08 08:34:50;;;;;;;21.58;16.88;;;22.30;61.50;;;;;;5053525;28;20127;-83
2022/10/08 08:37:18;;;;;;;24.75;17.00;;;22.20;61.40;;;;;;5076092;28;20056;-94
2022/10/08 08:39:44;;;;;;;26.20;16.58;;;22.20;62.20;;;;;;5058123;28;20115;-81
2022/10/08 08:42:19;;;;;;;24.60;16.10;;;22.30;60.70;;;;;;5057376;28;20131;-89
2022/10/08 08:44:55;;;;;;;24.85;15.77;;;21.90;61.30;;;;;;5090650;28;20062;-84
2022/10/08 08:47:33;;;;;;;20.42;17.33;;;21.10;63.10;;;;;;5074302;28;20056;-85
2022/10/08 08:50:10;;;;;;;21.88;16.25;;;21.10;64.20;;;;;;5074093;28;20017;-84
2022/10/08 08:52:41;;;;;;;24.25;16.58;;;21.40;63.40;;;;;;5073889;28;20391;-91
2022/10/08 08:55:28;;;;;;;19.30;16.58;;;21.80;63.40;;;;;;5073041;28;20043;-86
2022/10/08 08:57:59;;;;;;;22.95;17.50;;;22.50;61.60;;;;;;5073405;28;20174;-84
2022/10/08 09:00:35;;;;;;;19.83;15.38;;;22.90;60.70;;;;;;5074571;28;20059;-91
2022/10/08 09:03:05;;;;;;;19.73;15.05;;;23.10;59.50;;;;;;5088710;28;20048;-86
2022/10/08 09:05:38;;;;;;;17.76;14.40;;;23.30;60.40;;;;;;4707568;28;10000559;-87
2022/10/08 09:08:30;;;;;;;20.38;16.08;;;23.10;60.00;;;;;;5054948;28;20055;-85
2022/10/08 09:10:58;;;;;;;17.67;14.60;;;23.50;60.40;;;;;;5072340;28;20032;-85
2022/10/08 09:13:47;;;;;;;16.63;13.50;;;24.10;59.00;;;;;;5056218;28;20034;-84
2022/10/08 09:16:16;;;;;;;17.70;14.68;;;24.30;58.10;;;;;;5052948;28;20082;-90
2022/10/08 09:18:48;;;;;;;17.60;14.25;;;24.10;58.30;;;;;;5070972;28;20040;-81
2022/10/08 09:21:14;;;;;;;16.38;13.20;;;23.90;58.60;;;;;;5053252;28;20054;-85
2022/10/08 09:23:41;;;;;;;18.77;13.75;;;24.00;58.60;;;;;;5054663;28;20025;-85
2022/10/08 09:26:15;;;;;;;20.25;13.75;;;24.10;58.70;;;;;;5053514;28;20020;-81
2022/10/08 09:28:45;;;;;;;16.23;12.50;;;24.00;58.80;;;;;;5070181;28;20040;-83
2022/10/08 09:31:11;;;;;;;14.98;12.75;;;24.20;58.70;;;;;;5070985;28;20075;-91
2022/10/08 09:33:38;;;;;;;15.73;12.80;;;24.40;58.00;;;;;;5069681;28;20383;-81
2022/10/08 09:36:05;;;;;;;18.17;13.80;;;24.80;58.00;;;;;;5052360;28;20032;-81
2022/10/08 09:38:35;;;;;;;17.95;13.77;;;25.00;57.20;;;;;;5066523;28;20370;-89
2022/10/08 09:41:05;;;;;;;17.20;12.82;;;25.00;57.40;;;;;;5071202;28;20032;-80
2022/10/08 09:43:33;;;;;;;18.90;14.50;;;24.40;58.10;;;;;;5069726;28;20209;-87
2022/10/08 09:46:03;;;;;;;20.98;13.38;;;24.20;58.40;;;;;;5069762;28;20490;-80
2022/10/08 09:48:29;;;;;;;21.75;12.85;;;24.20;58.80;;;;;;5052690;28;20028;-79
2022/10/08 09:51:04;;;;;;;18.30;12.50;;;24.40;58.80;;;;;;5071181;28;20039;-85
2022/10/08 09:53:50;;;;;;;14.02;11.18;;;24.80;57.60;;;;;;5085969;28;20036;-85
2022/10/08 09:56:26;;;;;;;16.17;11.88;;;24.90;56.80;;;;;;5070808;28;20025;-80
2022/10/08 09:58:56;;;;;;;15.15;11.80;;;24.90;58.00;;;;;;5053235;28;20032;-82
2022/10/08 10:01:23;;;;;;;15.60;11.47;;;25.20;57.60;;;;;;5083482;28;20041;-80
2022/10/08 10:04:01;;;;;;;17.75;11.20;;;25.60;57.00;;;;;;5086509;28;20036;-88
2022/10/08 10:06:32;;;;;;;14.77;11.73;;;25.70;56.10;;;;;;5067765;28;20028;-86
2022/10/08 10:09:09;;;;;;;;;;;25.50;56.40;;;;;;5054221;28;20115;-79
2022/10/08 10:11:46;;;;;;;17.80;11.57;;;25.50;56.30;;;;;;5070466;28;19908;-88
2022/10/08 10:14:40;;;;;;;16.23;11.20;;;25.10;56.10;;;;;;5066754;28;20044;-84
2022/10/08 10:17:35;;;;;;;18.50;11.30;;;24.70;57.50;;;;;;5081470;28;20029;-84
2022/10/08 10:20:26;;;;;;;16.30;10.25;;;25.10;56.30;;;;;;5068532;28;20024;-85
2022/10/08 10:22:57;;;;;;;14.40;9.90;;;24.90;56.30;;;;;;5070750;28;20099;-88
2022/10/08 10:25:32;;;;;;;12.52;9.95;;;24.90;57.00;;;;;;5045165;28;20048;-82
2022/10/08 10:28:26;;;;;;;13.35;10.23;;;24.70;56.50;;;;;;5064230;28;20029;-87
2022/10/08 10:31:02;;;;;;;14.30;10.35;;;24.00;58.20;;;;;;4994752;28;20046;-80
2022/10/08 10:33:49;;;;;;;12.45;10.45;;;24.20;57.80;;;;;;4990538;28;20371;-87
2022/10/08 10:36:17;;;;;;;12.93;10.07;;;24.70;57.70;;;;;;4972797;28;20036;-84
2022/10/08 10:38:52;;;;;;;12.40;10.30;;;25.40;57.00;;;;;;4991136;28;20037;-83
2022/10/08 10:41:42;;;;;;;14.60;9.18;;;26.00;56.30;;;;;;4990921;28;20552;-81
2022/10/08 10:44:12;;;;;;;12.45;9.00;;;25.50;55.90;;;;;;4995038;28;20432;-86
2022/10/08 10:46:48;;;;;;;14.88;8.63;;;25.50;56.40;;;;;;4995956;28;20469;-86
2022/10/08 10:49:17;;;;;;;13.60;8.55;;;25.60;54.60;;;;;;4994787;28;20023;-86
2022/10/08 10:52:13;;;;;;;16.05;8.43;;;25.50;55.40;;;;;;4996648;28;20430;-94
2022/10/08 10:54:47;;;;;;;12.75;8.63;;;25.40;55.10;;;;;;5011860;28;20131;-90
2022/10/08 10:57:38;;;;;;;13.60;8.32;;;25.10;55.30;;;;;;4978842;28;20034;-83
2022/10/08 11:00:22;;;;;;;16.90;7.82;;;24.90;55.70;;;;;;4995234;28;20042;-83
2022/10/08 11:02:53;;;;;;;14.35;7.53;;;25.40;55.40;;;;;;4980966;28;20023;-85
2022/10/08 11:05:25;;;;;;;11.38;7.60;;;25.60;53.90;;;;;;4996055;28;20177;-85
2022/10/08 11:08:03;;;;;;;14.23;7.88;;;25.30;55.10;;;;;;5039574;28;20028;-83
2022/10/08 11:10:50;;;;;;;13.05;8.50;;;25.40;54.90;;;;;;5076951;28;20028;-83
2022/10/08 11:13:26;;;;;;;12.05;8.02;;;25.60;54.50;;;;;;5076947;28;20028;-85
2022/10/08 11:16:23;;;;;;;13.07;8.63;;;25.50;53.90;;;;;;5059909;28;20048;-85
2022/10/08 11:19:01;;;;;;;9.93;7.35;;;25.80;54.80;;;;;;5076989;28;20036;-94
2022/10/08 11:21:30;;;;;;;10.32;7.82;;;25.80;54.20;;;;;;5072150;28;20549;-85
2022/10/08 11:24:26;;;;;;;9.35;8.35;;;25.40;55.50;;;;;;5058654;28;20390;-84
2022/10/08 11:27:04;;;;;;;10.80;8.52;;;25.70;55.90;;;;;;5059228;28;20032;-84
2022/10/08 11:29:45;;;;;;;27.77;9.00;;;26.20;54.40;;;;;;5059443;28;20025;-84
2022/10/08 11:32:13;;;;;;;10.30;7.88;;;26.60;53.90;;;;;;5076814;28;20063;-85
2022/10/08 11:34:48;;;;;;;11.73;9.45;;;26.50;53.60;;;;;;5058703;28;20036;-88
2022/10/08 11:37:52;;;;;;;18.00;11.38;;;26.40;53.70;;;;;;5058881;28;20537;-87
2022/10/08 11:40:42;;;;;;;11.10;8.65;;;26.40;54.30;;;;;;5058380;28;20460;-86
2022/10/08 11:43:23;;;;;;;8.85;7.72;;;26.50;54.40;;;;;;5076728;28;20025;-83
2022/10/08 11:46:27;;;;;;;10.18;7.95;;;26.20;54.10;;;;;;5075383;28;20116;-82
2022/10/08 11:49:13;;;;;;;10.68;7.68;;;25.50;55.30;;;;;;5066268;28;20027;-79
2022/10/08 11:51:43;;;;;;;11.25;8.48;;;25.50;56.10;;;;;;5032086;28;20065;-80
2022/10/08 11:54:27;;;;;;;10.60;8.20;;;26.10;55.30;;;;;;5032509;28;20128;-81
2022/10/08 11:57:21;;;;;;;9.85;8.00;;;26.50;55.10;;;;;;5013733;28;20528;-88
2022/10/08 12:00:46;;;;;;;20.63;8.65;;;26.70;53.60;;;;;;5024498;28;20389;-83
2022/10/08 12:03:23;;;;;;;22.40;8.90;;;26.20;53.20;;;;;;4954226;29;20039;-85
2022/10/08 12:05:52;;;;;;;12.10;7.78;;;26.10;54.70;;;;;;4938823;29;20055;-83
2022/10/08 12:08:49;;;;;;;12.30;8.82;;;26.30;53.70;;;;;;4935533;29;20082;-87
2022/10/08 12:11:39;;;;;;;13.15;7.80;;;26.30;53.80;;;;;;4953960;28;20031;-85
2022/10/08 12:14:11;;;;;;;10.88;7.97;;;26.30;53.70;;;;;;4954060;28;20144;-81
2022/10/08 12:16:54;;;;;;;13.75;7.50;;;26.50;53.70;;;;;;4937753;29;20277;-83
2022/10/08 12:19:34;;;;;;;13.55;6.28;;;26.60;51.90;;;;;;4952482;29;20039;-86
2022/10/08 12:22:02;;;;;;;9.60;6.75;;;26.50;53.10;;;;;;4951476;28;20053;-91
2022/10/08 12:24:37;;;;;;;11.95;7.63;;;26.50;52.90;;;;;;4936641;29;20039;-83
2022/10/08 12:27:15;;;;;;;11.57;6.35;;;26.60;52.60;;;;;;4952138;29;20414;-83
2022/10/08 12:29:56;;;;;;;10.50;6.45;;;26.30;51.00;;;;;;4959418;28;20096;-84
2022/10/08 12:32:22;;;;;;;;;;;25.50;52.60;;;;;;4976688;28;20178;-85
2022/10/08 12:34:48;;;;;;;9.50;5.30;;;25.40;52.70;;;;;;5071141;28;19920;-81
2022/10/08 12:37:35;;;;;;;10.07;6.13;;;25.80;53.20;;;;;;5073729;28;20433;-83
2022/10/08 12:40:24;;;;;;;7.32;5.50;;;25.90;52.90;;;;;;5073349;28;20025;-86
2022/10/08 12:43:01;;;;;;;13.83;5.77;;;26.10;52.60;;;;;;4019740;28;10001205;-80
2022/10/08 12:45:38;;;;;;;11.57;5.80;;;26.40;52.80;;;;;;5074152;28;20025;-90
2022/10/08 12:48:13;;;;;;;13.85;5.97;;;26.20;51.30;;;;;;5056438;28;20032;-85
2022/10/08 12:50:51;;;;;;;12.65;6.20;;;26.00;52.40;;;;;;5058996;28;20086;-88
2022/10/08 12:53:17;;;;;;;15.63;6.38;;;25.90;51.90;;;;;;5074689;28;20024;-82
2022/10/08 12:55:53;;;;;;;7.68;5.25;;;26.00;52.30;;;;;;5059194;28;20033;-86